Calverton, Virginia
Current Conditions -  °F | °C
As of 5:35 AM on Monday 22 Dec 2014 (Local Time) from KHWY Reporting Station
Overcast Overcast  
Wind Chill: 32°   Ceiling: 4500
Heat Index: 32°   Visibility: 7mi
Dew Point: 31°   Wind: 0mph
Humidity: 95%   Direction: NA
Pressure: 30.28"   Gusts: NA
Location:  38.63°N, 77.67°W
Report Text: KHWY 221035Z AUTO 00000KT 7SM OVC045 00/M01 A3028 RMK AO2 T00001007
Loading
Personal Weather Stations






























Interactive Weather Map New forecast layout! Learn more

10-Day Weather Forecast

Advertisements
Track Severe Weather on mobile